Airfield :
LOGIN :

Register | Disclaimer

   EN    FR    IT 

 










Legend :    VFR   Marginal VFR   IFR   Intensive IFR   Very Intensive IFR
Visi :
Ceiling :
>= 8 km
>= 3000ft
5 to 8 km
1000 to 3000 ft
1500m to 5 km
500 to 1000 ft
800 to 1500m
200 to 500 ft
< 800m
< 200 ft
Symbols :   Thunderstorms  Fog  Heavy snow  Heavy precipitations  Wind > 20 kt
SIGMETs :     Misc.  Thunderstorms  Icing  Turbulence  Mountain Waves  Volcanic Ashes







- Airport Elevation : 287 ft
- Download approach charts


LFRL - Lanveoc Poulmic

CURRENT METAR :
  • 200400Z AUTO 19008KT 9999 OVC010 16/16 Q1016

EXPIRED METARs :
  • 200330Z AUTO 19009KT 9999 OVC010 17/16 Q1016
  • 200300Z AUTO 19009KT 9999 BKN008 OVC014 16/16 Q1016
  • 200230Z AUTO 19009KT 9999 BKN008 BKN014 OVC019 16/16 Q1017
  • 200200Z AUTO 20009KT 9000 OVC008 16/16 Q1017
  • 200130Z AUTO 18009KT 9000 BKN008 OVC024 16/16 Q1017

TAF TAF LFRL
Valid from the 19 at 12:00 until the 20 at 12:00 UTC


191100Z 1912/2012 21015G29KT 9999 BKN015
BECMG 1916/1918 21012KT OVC010
BECMG 1919/1921 OVC008
TEMPO 1921/2002 BKN005 OVC008
BECMG 2006/2008 OVC010
BECMG 2010/2012 20020G30KT
No reported NOTAMs for that airfield.



MET'MAP, your aeronautical weather chart ! - Copyright ORBIFLY December 2007 - Disclaimer

ORBIFLY MET'MAP TEAM :

Programming & Development : Alexandra Zaïnal
Concept & Development : Baudouin d'Aumeries
Co-Development & Prog : Marc-Olivier Méhu
Technical & hardware support : Manuel Goepfert

Contact : metmap@orbifly.com




SOURCES & CREDITS :

   NOAA